METAR Data
IDs: Format: Raw Decoded Include TAF

Data at: 1937 UTC 21 Sep 2021

KADF 211856Z AUTO VRB03KT 8SM -RA BKN017 BKN100 23/22 A3005 RMK AO2 LTG DSNT ALQDS RAE35B55 SLP174 P0003 T02330217
KADF 211816Z AUTO 33004KT 10SM -RA SCT022 BKN070 OVC110 24/22 A3006 RMK AO2 LTG DSNT W P0002
KADF 211756Z AUTO 01007KT 10SM -RA BKN022 BKN033 BKN080 25/22 A3006 RMK AO2 LTG DSNT E AND W TSE1658RAE02B38 SLP175 P0000 60000 T02500222 10294 20217 50008
KADF 211656Z AUTO 33003KT 10SM VCTS -RA BKN030 BKN034 OVC085 28/24 A3006 RMK AO2 LTG DSNT NE AND NW TSB20E35B43RAB43 SLP176 P0000 T02780244
KADF 211643Z AUTO 33003KT 9SM VCTS -RA FEW029 BKN090 OVC110 28/24 A3006 RMK AO2 LTG DSNT N-E TSB20E35B43RAB43 P0000
KADF 211631Z AUTO 00000KT 10SM VCTS SCT029 BKN090 28/23 A3005 RMK AO2 LTG DSNT N AND NE TSB20
KADF 211556Z AUTO 17005KT 10SM FEW020 SCT070 BKN085 28/24 A3005 RMK AO2 LTG DSNT NW-NE SLP172 T02830239
KADF 211456Z AUTO VRB03KT 10SM CLR 28/24 A3003 RMK AO2 SLP166 T02780239 53008
KADF 211356Z AUTO 00000KT 10SM CLR 25/23 A3002 RMK AO2 SLP162 T02500233
KADF 211256Z AUTO 21003KT 4SM BR CLR 23/23 A3001 RMK AO2 SLP159 T02280228
KADF 211156Z AUTO 01004KT 7SM CLR 22/22 A3001 RMK AO2 SLP158 T02220222 10228 20200 53027
KADF 211056Z AUTO 01003KT 9SM CLR 22/22 A2997 RMK AO2 SLP145 T02170217
KADF 210956Z AUTO 00000KT 4SM BR CLR 21/20 A2992 RMK AO2 SLP130 T02060200
KADF 210908Z AUTO 00000KT 3SM BR CLR 21/21 A2993 RMK AO2
KADF 210901Z AUTO 00000KT 1 3/4SM BR CLR 21/21 A2993 RMK AO2
KADF 210856Z AUTO 00000KT 6SM BR CLR 22/21 A2993 RMK AO2 SLP132 T02170211 50003
KADF 210756Z AUTO 00000KT 7SM CLR 22/21 A2993 RMK AO2 SLP133 T02170211
KADF 210656Z AUTO 00000KT 10SM OVC060 22/22 A2993 RMK AO2 SLP133 T02220217
KADF 210556Z AUTO 00000KT 10SM CLR 22/21 A2992 RMK AO2 SLP128 T02170211 10294 20217 403330189 51002
KADF 210456Z AUTO 00000KT 10SM CLR 22/21 A2992 RMK AO2 SLP128 T02170211
KADF 210356Z AUTO 00000KT 10SM CLR 23/22 A2992 RMK AO2 SLP129 T02280217
KADF 210256Z AUTO 00000KT 10SM CLR 23/22 A2991 RMK AO2 SLP127 T02330222 51019
KADF 210156Z AUTO 00000KT 10SM CLR 24/22 A2990 RMK AO2 SLP121 T02390222
KADF 210056Z AUTO 00000KT 10SM CLR 26/22 A2988 RMK AO2 SLP116 T02610222
KADF 202356Z AUTO 16005KT 10SM CLR 29/22 A2986 RMK AO2 SLP108 T02940222 10333 20294 56003
KADF 202256Z AUTO 17006KT 10SM BKN049 32/23 A2986 RMK AO2 SLP107 T03170228
KADF 202156Z AUTO 17005KT 10SM FEW049 32/23 A2985 RMK AO2 SLP105 T03170233
KADF 202056Z AUTO 22004KT 10SM FEW047 BKN070 32/22 A2987 RMK AO2 SLP110 T03170222 56020
KADF 201956Z AUTO 00000KT 10SM SCT045 31/22 A2988 RMK AO2 SLP115 T03110222